sensor_id;sensor_type;location;lat;lon;timestamp;temperature;humidity
7427;DHT22;3755;59.316;18.092;2023-07-20T00:02:04;13.80;99.90
7427;DHT22;3755;59.316;18.092;2023-07-20T00:04:33;13.80;99.90
7427;DHT22;3755;59.316;18.092;2023-07-20T00:07:00;13.70;99.90
7427;DHT22;3755;59.316;18.092;2023-07-20T00:09:27;13.70;99.90
7427;DHT22;3755;59.316;18.092;2023-07-20T00:11:54;13.60;99.90
7427;DHT22;3755;59.316;18.092;2023-07-20T00:14:22;13.60;99.90
7427;DHT22;3755;59.316;18.092;2023-07-20T00:16:51;13.60;99.90
7427;DHT22;3755;59.316;18.092;2023-07-20T00:19:22;13.60;99.90
7427;DHT22;3755;59.316;18.092;2023-07-20T00:21:50;13.60;99.90
7427;DHT22;3755;59.316;18.092;2023-07-20T00:24:17;13.60;99.90
7427;DHT22;3755;59.316;18.092;2023-07-20T00:26:44;13.60;99.90
7427;DHT22;3755;59.316;18.092;2023-07-20T00:29:12;13.60;99.90
7427;DHT22;3755;59.316;18.092;2023-07-20T00:31:39;13.60;99.90
7427;DHT22;3755;59.316;18.092;2023-07-20T00:34:07;13.60;99.90
7427;DHT22;3755;59.316;18.092;2023-07-20T00:36:35;13.50;99.90
7427;DHT22;3755;59.316;18.092;2023-07-20T00:39:02;13.50;99.90
7427;DHT22;3755;59.316;18.092;2023-07-20T00:41:29;13.50;99.90
7427;DHT22;3755;59.316;18.092;2023-07-20T00:43:57;13.50;99.90
7427;DHT22;3755;59.316;18.092;2023-07-20T00:46:24;13.50;99.90
7427;DHT22;3755;59.316;18.092;2023-07-20T00:48:53;13.50;99.90
7427;DHT22;3755;59.316;18.092;2023-07-20T00:51:23;13.50;99.90
7427;DHT22;3755;59.316;18.092;2023-07-20T00:53:51;13.40;99.90
7427;DHT22;3755;59.316;18.092;2023-07-20T00:56:19;13.40;99.90
7427;DHT22;3755;59.316;18.092;2023-07-20T00:58:47;13.40;99.90
7427;DHT22;3755;59.316;18.092;2023-07-20T01:01:14;13.30;99.90
7427;DHT22;3755;59.316;18.092;2023-07-20T01:03:41;13.30;99.90
7427;DHT22;3755;59.316;18.092;2023-07-20T01:06:15;13.30;99.90
7427;DHT22;3755;59.316;18.092;2023-07-20T01:08:50;13.40;99.90
7427;DHT22;3755;59.316;18.092;2023-07-20T01:11:26;13.30;99.90
7427;DHT22;3755;59.316;18.092;2023-07-20T01:13:55;13.30;99.90
7427;DHT22;3755;59.316;18.092;2023-07-20T01:16:23;13.30;99.90
7427;DHT22;3755;59.316;18.092;2023-07-20T01:18:50;13.30;99.90
7427;DHT22;3755;59.316;18.092;2023-07-20T01:21:21;13.30;99.90
7427;DHT22;3755;59.316;18.092;2023-07-20T01:24:25;13.30;99.90
7427;DHT22;3755;59.316;18.092;2023-07-20T01:27:27;13.30;99.90
7427;DHT22;3755;59.316;18.092;2023-07-20T01:30:23;13.20;99.90
7427;DHT22;3755;59.316;18.092;2023-07-20T01:32:55;13.20;99.90
7427;DHT22;3755;59.316;18.092;2023-07-20T01:35:25;13.20;99.90
7427;DHT22;3755;59.316;18.092;2023-07-20T01:37:54;13.20;99.90
7427;DHT22;3755;59.316;18.092;2023-07-20T01:40:22;13.20;99.90
7427;DHT22;3755;59.316;18.092;2023-07-20T01:42:51;13.20;99.90
7427;DHT22;3755;59.316;18.092;2023-07-20T01:45:19;13.20;99.90
7427;DHT22;3755;59.316;18.092;2023-07-20T01:47:46;13.10;99.90
7427;DHT22;3755;59.316;18.092;2023-07-20T01:50:15;13.10;99.90
7427;DHT22;3755;59.316;18.092;2023-07-20T01:52:42;13.10;99.90
7427;DHT22;3755;59.316;18.092;2023-07-20T01:55:09;13.10;99.90
7427;DHT22;3755;59.316;18.092;2023-07-20T01:57:36;13.10;99.90
7427;DHT22;3755;59.316;18.092;2023-07-20T02:00:04;13.10;99.90
7427;DHT22;3755;59.316;18.092;2023-07-20T02:02:32;13.10;99.90
7427;DHT22;3755;59.316;18.092;2023-07-20T02:04:59;13.00;99.90
7427;DHT22;3755;59.316;18.092;2023-07-20T02:07:28;13.10;99.90
7427;DHT22;3755;59.316;18.092;2023-07-20T02:09:55;13.00;99.90
7427;DHT22;3755;59.316;18.092;2023-07-20T02:12:22;13.00;99.90
7427;DHT22;3755;59.316;18.092;2023-07-20T02:14:49;13.10;99.90
7427;DHT22;3755;59.316;18.092;2023-07-20T02:17:17;13.00;99.90
7427;DHT22;3755;59.316;18.092;2023-07-20T02:19:44;13.00;99.90
7427;DHT22;3755;59.316;18.092;2023-07-20T02:22:12;13.00;99.90
7427;DHT22;3755;59.316;18.092;2023-07-20T02:24:40;13.00;99.90
7427;DHT22;3755;59.316;18.092;2023-07-20T02:27:08;13.00;99.90
7427;DHT22;3755;59.316;18.092;2023-07-20T02:29:35;13.00;99.90
7427;DHT22;3755;59.316;18.092;2023-07-20T02:32:03;13.00;99.90
7427;DHT22;3755;59.316;18.092;2023-07-20T02:34:30;13.00;99.90
7427;DHT22;3755;59.316;18.092;2023-07-20T02:36:58;13.00;99.90
7427;DHT22;3755;59.316;18.092;2023-07-20T02:39:27;12.90;99.90
7427;DHT22;3755;59.316;18.092;2023-07-20T02:41:55;12.90;99.90
7427;DHT22;3755;59.316;18.092;2023-07-20T02:44:22;12.90;99.90
7427;DHT22;3755;59.316;18.092;2023-07-20T02:46:50;12.90;99.90
7427;DHT22;3755;59.316;18.092;2023-07-20T02:49:17;12.90;99.90
7427;DHT22;3755;59.316;18.092;2023-07-20T02:51:44;12.90;99.90
7427;DHT22;3755;59.316;18.092;2023-07-20T02:54:12;12.90;99.90
7427;DHT22;3755;59.316;18.092;2023-07-20T02:56:39;12.90;99.90
7427;DHT22;3755;59.316;18.092;2023-07-20T02:59:07;12.90;99.90
7427;DHT22;3755;59.316;18.092;2023-07-20T03:01:34;12.90;99.90
7427;DHT22;3755;59.316;18.092;2023-07-20T03:04:02;12.90;99.90
7427;DHT22;3755;59.316;18.092;2023-07-20T03:06:29;12.90;99.90
7427;DHT22;3755;59.316;18.092;2023-07-20T03:08:57;12.90;99.90
7427;DHT22;3755;59.316;18.092;2023-07-20T03:11:24;12.90;99.90
7427;DHT22;3755;59.316;18.092;2023-07-20T03:13:51;12.90;99.90
7427;DHT22;3755;59.316;18.092;2023-07-20T03:16:20;13.00;99.90
7427;DHT22;3755;59.316;18.092;2023-07-20T03:18:47;13.00;99.90
7427;DHT22;3755;59.316;18.092;2023-07-20T03:21:14;13.10;99.90
7427;DHT22;3755;59.316;18.092;2023-07-20T03:23:41;13.30;99.90
7427;DHT22;3755;59.316;18.092;2023-07-20T03:26:08;13.30;99.90
7427;DHT22;3755;59.316;18.092;2023-07-20T03:28:36;13.40;99.90
7427;DHT22;3755;59.316;18.092;2023-07-20T03:31:03;13.50;99.90
7427;DHT22;3755;59.316;18.092;2023-07-20T03:33:32;13.50;99.90
7427;DHT22;3755;59.316;18.092;2023-07-20T03:35:59;13.60;99.90
7427;DHT22;3755;59.316;18.092;2023-07-20T03:38:27;13.70;99.90
7427;DHT22;3755;59.316;18.092;2023-07-20T03:40:57;14.00;99.90
7427;DHT22;3755;59.316;18.092;2023-07-20T03:43:26;14.10;99.90
7427;DHT22;3755;59.316;18.092;2023-07-20T03:45:53;14.20;99.90
7427;DHT22;3755;59.316;18.092;2023-07-20T03:48:23;14.40;99.90
7427;DHT22;3755;59.316;18.092;2023-07-20T03:50:54;14.60;99.90
7427;DHT22;3755;59.316;18.092;2023-07-20T03:53:21;14.80;99.90
7427;DHT22;3755;59.316;18.092;2023-07-20T03:55:49;15.00;99.90
7427;DHT22;3755;59.316;18.092;2023-07-20T03:58:17;15.20;99.90
7427;DHT22;3755;59.316;18.092;2023-07-20T04:00:45;14.80;99.90
7427;DHT22;3755;59.316;18.092;2023-07-20T04:03:12;14.80;99.90
7427;DHT22;3755;59.316;18.092;2023-07-20T04:05:40;15.00;99.90
7427;DHT22;3755;59.316;18.092;2023-07-20T04:08:09;15.10;99.90
7427;DHT22;3755;59.316;18.092;2023-07-20T04:10:36;15.30;99.90
7427;DHT22;3755;59.316;18.092;2023-07-20T04:13:04;15.70;99.90
7427;DHT22;3755;59.316;18.092;2023-07-20T04:15:31;15.70;99.90
7427;DHT22;3755;59.316;18.092;2023-07-20T04:17:58;15.60;99.90
7427;DHT22;3755;59.316;18.092;2023-07-20T04:20:26;15.70;99.90
7427;DHT22;3755;59.316;18.092;2023-07-20T04:22:53;15.80;99.90
7427;DHT22;3755;59.316;18.092;2023-07-20T04:25:22;16.00;99.90
7427;DHT22;3755;59.316;18.092;2023-07-20T04:27:49;15.90;99.90
7427;DHT22;3755;59.316;18.092;2023-07-20T04:30:18;15.90;99.90
7427;DHT22;3755;59.316;18.092;2023-07-20T04:32:48;16.00;99.90
7427;DHT22;3755;59.316;18.092;2023-07-20T04:38:05;16.00;99.90
7427;DHT22;3755;59.316;18.092;2023-07-20T04:40:34;16.20;99.90
7427;DHT22;3755;59.316;18.092;2023-07-20T04:43:01;16.30;99.90
7427;DHT22;3755;59.316;18.092;2023-07-20T04:45:29;16.70;99.90
7427;DHT22;3755;59.316;18.092;2023-07-20T04:47:56;16.90;99.90
7427;DHT22;3755;59.316;18.092;2023-07-20T04:50:23;16.90;99.90
7427;DHT22;3755;59.316;18.092;2023-07-20T04:52:51;17.50;99.90
7427;DHT22;3755;59.316;18.092;2023-07-20T04:55:18;17.00;99.90
7427;DHT22;3755;59.316;18.092;2023-07-20T04:57:47;17.20;99.90
7427;DHT22;3755;59.316;18.092;2023-07-20T05:00:15;17.00;99.90
7427;DHT22;3755;59.316;18.092;2023-07-20T05:02:43;17.00;99.90
7427;DHT22;3755;59.316;18.092;2023-07-20T05:05:10;16.80;99.90
7427;DHT22;3755;59.316;18.092;2023-07-20T05:07:37;16.50;99.90
7427;DHT22;3755;59.316;18.092;2023-07-20T05:10:05;16.50;99.90
7427;DHT22;3755;59.316;18.092;2023-07-20T05:12:32;16.80;99.90
7427;DHT22;3755;59.316;18.092;2023-07-20T05:15:01;16.70;99.90
7427;DHT22;3755;59.316;18.092;2023-07-20T05:17:29;16.50;99.90
7427;DHT22;3755;59.316;18.092;2023-07-20T05:19:56;16.40;99.90
7427;DHT22;3755;59.316;18.092;2023-07-20T05:22:23;16.20;99.90
7427;DHT22;3755;59.316;18.092;2023-07-20T05:24:51;16.30;99.90
7427;DHT22;3755;59.316;18.092;2023-07-20T05:27:18;16.20;99.90
7427;DHT22;3755;59.316;18.092;2023-07-20T05:29:45;16.20;99.90
7427;DHT22;3755;59.316;18.092;2023-07-20T05:32:14;15.90;99.90
7427;DHT22;3755;59.316;18.092;2023-07-20T05:34:41;15.60;99.90
7427;DHT22;3755;59.316;18.092;2023-07-20T05:37:08;15.60;99.90
7427;DHT22;3755;59.316;18.092;2023-07-20T05:39:36;15.40;99.90
7427;DHT22;3755;59.316;18.092;2023-07-20T05:42:03;15.40;99.90
7427;DHT22;3755;59.316;18.092;2023-07-20T05:44:30;15.40;99.90
7427;DHT22;3755;59.316;18.092;2023-07-20T05:46:57;15.40;99.90
7427;DHT22;3755;59.316;18.092;2023-07-20T05:49:26;15.50;99.90
7427;DHT22;3755;59.316;18.092;2023-07-20T05:51:54;15.50;99.90
7427;DHT22;3755;59.316;18.092;2023-07-20T05:54:21;15.60;99.90
7427;DHT22;3755;59.316;18.092;2023-07-20T05:56:48;15.50;99.90
7427;DHT22;3755;59.316;18.092;2023-07-20T05:59:16;15.50;99.90
7427;DHT22;3755;59.316;18.092;2023-07-20T06:01:43;15.50;99.90
7427;DHT22;3755;59.316;18.092;2023-07-20T06:04:11;15.60;99.90
7427;DHT22;3755;59.316;18.092;2023-07-20T06:06:39;15.50;99.90
7427;DHT22;3755;59.316;18.092;2023-07-20T06:09:06;15.70;99.90
7427;DHT22;3755;59.316;18.092;2023-07-20T06:11:37;15.80;99.90
7427;DHT22;3755;59.316;18.092;2023-07-20T06:14:04;15.70;99.90
7427;DHT22;3755;59.316;18.092;2023-07-20T06:16:32;15.50;99.90
7427;DHT22;3755;59.316;18.092;2023-07-20T06:18:59;15.60;99.90
7427;DHT22;3755;59.316;18.092;2023-07-20T06:21:27;15.70;99.90
7427;DHT22;3755;59.316;18.092;2023-07-20T06:23:55;15.80;99.90
7427;DHT22;3755;59.316;18.092;2023-07-20T06:26:22;15.80;99.90
7427;DHT22;3755;59.316;18.092;2023-07-20T06:28:49;15.80;99.90
7427;DHT22;3755;59.316;18.092;2023-07-20T06:31:17;15.90;99.90
7427;DHT22;3755;59.316;18.092;2023-07-20T06:33:44;15.90;99.90
7427;DHT22;3755;59.316;18.092;2023-07-20T06:36:11;15.90;99.90
7427;DHT22;3755;59.316;18.092;2023-07-20T06:38:38;16.00;99.90
7427;DHT22;3755;59.316;18.092;2023-07-20T06:41:07;16.10;99.90
7427;DHT22;3755;59.316;18.092;2023-07-20T06:43:34;16.20;99.90
7427;DHT22;3755;59.316;18.092;2023-07-20T06:46:01;16.20;99.90
7427;DHT22;3755;59.316;18.092;2023-07-20T06:48:28;16.10;99.90
7427;DHT22;3755;59.316;18.092;2023-07-20T06:50:55;16.10;99.90
7427;DHT22;3755;59.316;18.092;2023-07-20T06:53:22;16.20;99.90
7427;DHT22;3755;59.316;18.092;2023-07-20T06:55:49;16.30;99.90
7427;DHT22;3755;59.316;18.092;2023-07-20T06:58:18;16.40;99.90
7427;DHT22;3755;59.316;18.092;2023-07-20T07:00:47;16.40;99.90
7427;DHT22;3755;59.316;18.092;2023-07-20T07:03:14;16.40;99.90
7427;DHT22;3755;59.316;18.092;2023-07-20T07:05:42;16.70;99.90
7427;DHT22;3755;59.316;18.092;2023-07-20T07:08:10;16.70;99.90
7427;DHT22;3755;59.316;18.092;2023-07-20T07:10:37;16.60;99.90
7427;DHT22;3755;59.316;18.092;2023-07-20T07:13:04;16.70;99.90
7427;DHT22;3755;59.316;18.092;2023-07-20T07:15:33;16.70;99.90
7427;DHT22;3755;59.316;18.092;2023-07-20T07:18:00;16.70;99.90
7427;DHT22;3755;59.316;18.092;2023-07-20T07:20:29;16.90;99.90
7427;DHT22;3755;59.316;18.092;2023-07-20T07:22:56;16.80;99.90
7427;DHT22;3755;59.316;18.092;2023-07-20T07:25:24;16.70;99.90
7427;DHT22;3755;59.316;18.092;2023-07-20T07:27:53;16.60;99.90
7427;DHT22;3755;59.316;18.092;2023-07-20T07:30:21;16.40;99.90
7427;DHT22;3755;59.316;18.092;2023-07-20T07:32:50;16.40;99.90
7427;DHT22;3755;59.316;18.092;2023-07-20T07:35:17;16.30;99.90
7427;DHT22;3755;59.316;18.092;2023-07-20T07:37:45;16.50;99.90
7427;DHT22;3755;59.316;18.092;2023-07-20T07:40:12;16.60;99.90
7427;DHT22;3755;59.316;18.092;2023-07-20T07:42:40;16.90;99.90
7427;DHT22;3755;59.316;18.092;2023-07-20T07:45:08;16.90;99.90
7427;DHT22;3755;59.316;18.092;2023-07-20T07:47:35;17.00;99.90
7427;DHT22;3755;59.316;18.092;2023-07-20T07:50:04;17.00;99.90
7427;DHT22;3755;59.316;18.092;2023-07-20T07:52:32;17.00;99.90
7427;DHT22;3755;59.316;18.092;2023-07-20T07:54:59;17.00;99.90
7427;DHT22;3755;59.316;18.092;2023-07-20T07:57:26;17.00;99.90
7427;DHT22;3755;59.316;18.092;2023-07-20T07:59:54;16.90;99.90
7427;DHT22;3755;59.316;18.092;2023-07-20T08:02:21;17.20;99.90
7427;DHT22;3755;59.316;18.092;2023-07-20T08:04:48;17.40;99.90
7427;DHT22;3755;59.316;18.092;2023-07-20T08:07:19;17.70;99.90
7427;DHT22;3755;59.316;18.092;2023-07-20T08:09:46;17.90;99.90
7427;DHT22;3755;59.316;18.092;2023-07-20T08:12:13;17.90;99.90
7427;DHT22;3755;59.316;18.092;2023-07-20T08:14:43;18.00;99.90
7427;DHT22;3755;59.316;18.092;2023-07-20T08:17:10;18.10;99.90
7427;DHT22;3755;59.316;18.092;2023-07-20T08:19:37;18.10;99.90
7427;DHT22;3755;59.316;18.092;2023-07-20T08:22:07;17.90;99.90
7427;DHT22;3755;59.316;18.092;2023-07-20T08:24:39;18.10;99.90
7427;DHT22;3755;59.316;18.092;2023-07-20T08:27:07;18.10;99.90
7427;DHT22;3755;59.316;18.092;2023-07-20T08:29:34;18.20;99.90
7427;DHT22;3755;59.316;18.092;2023-07-20T08:32:03;18.40;99.90
7427;DHT22;3755;59.316;18.092;2023-07-20T08:34:31;18.50;99.90
7427;DHT22;3755;59.316;18.092;2023-07-20T08:36:58;18.60;99.90
7427;DHT22;3755;59.316;18.092;2023-07-20T08:39:26;18.50;99.90
7427;DHT22;3755;59.316;18.092;2023-07-20T08:41:55;18.40;99.90
7427;DHT22;3755;59.316;18.092;2023-07-20T08:44:22;18.30;99.90
7427;DHT22;3755;59.316;18.092;2023-07-20T08:46:52;18.20;99.90
7427;DHT22;3755;59.316;18.092;2023-07-20T08:49:20;18.00;99.90
7427;DHT22;3755;59.316;18.092;2023-07-20T08:51:48;17.90;99.90
7427;DHT22;3755;59.316;18.092;2023-07-20T08:54:16;17.70;99.90
7427;DHT22;3755;59.316;18.092;2023-07-20T08:56:45;17.60;99.90
7427;DHT22;3755;59.316;18.092;2023-07-20T08:59:17;17.60;99.90
7427;DHT22;3755;59.316;18.092;2023-07-20T09:01:44;17.70;99.90
7427;DHT22;3755;59.316;18.092;2023-07-20T09:04:13;17.70;99.90
7427;DHT22;3755;59.316;18.092;2023-07-20T09:06:40;17.60;99.90
7427;DHT22;3755;59.316;18.092;2023-07-20T09:09:07;17.50;99.90
7427;DHT22;3755;59.316;18.092;2023-07-20T09:11:34;17.60;99.90
7427;DHT22;3755;59.316;18.092;2023-07-20T09:14:06;17.70;99.90
7427;DHT22;3755;59.316;18.092;2023-07-20T09:16:48;18.00;99.90
7427;DHT22;3755;59.316;18.092;2023-07-20T09:19:16;18.60;99.90
7427;DHT22;3755;59.316;18.092;2023-07-20T09:21:44;18.90;99.90
7427;DHT22;3755;59.316;18.092;2023-07-20T09:24:13;18.70;99.90
7427;DHT22;3755;59.316;18.092;2023-07-20T09:26:45;18.70;99.90
7427;DHT22;3755;59.316;18.092;2023-07-20T09:29:14;18.40;99.90
7427;DHT22;3755;59.316;18.092;2023-07-20T09:31:42;18.60;99.90
7427;DHT22;3755;59.316;18.092;2023-07-20T09:34:10;18.90;99.90
7427;DHT22;3755;59.316;18.092;2023-07-20T09:36:37;19.10;99.90
7427;DHT22;3755;59.316;18.092;2023-07-20T09:39:04;18.90;99.90
7427;DHT22;3755;59.316;18.092;2023-07-20T09:41:40;18.70;99.90
7427;DHT22;3755;59.316;18.092;2023-07-20T09:44:09;18.90;99.90
7427;DHT22;3755;59.316;18.092;2023-07-20T09:46:45;19.10;99.90
7427;DHT22;3755;59.316;18.092;2023-07-20T09:49:14;19.20;99.90
7427;DHT22;3755;59.316;18.092;2023-07-20T09:51:41;19.00;99.90
7427;DHT22;3755;59.316;18.092;2023-07-20T09:54:10;19.00;99.90
7427;DHT22;3755;59.316;18.092;2023-07-20T09:56:38;18.90;99.90
7427;DHT22;3755;59.316;18.092;2023-07-20T09:59:06;19.00;99.90
7427;DHT22;3755;59.316;18.092;2023-07-20T10:01:35;19.10;99.90
7427;DHT22;3755;59.316;18.092;2023-07-20T10:04:09;19.30;99.90
7427;DHT22;3755;59.316;18.092;2023-07-20T10:06:41;19.40;98.70
7427;DHT22;3755;59.316;18.092;2023-07-20T10:09:10;19.20;99.40
7427;DHT22;3755;59.316;18.092;2023-07-20T10:11:45;19.20;98.90
7427;DHT22;3755;59.316;18.092;2023-07-20T10:14:16;19.50;98.90
7427;DHT22;3755;59.316;18.092;2023-07-20T10:16:50;19.60;98.50
7427;DHT22;3755;59.316;18.092;2023-07-20T10:19:23;19.50;99.00
7427;DHT22;3755;59.316;18.092;2023-07-20T10:22:06;19.70;98.70
7427;DHT22;3755;59.316;18.092;2023-07-20T10:24:34;19.80;97.90
7427;DHT22;3755;59.316;18.092;2023-07-20T10:27:02;19.90;98.10
7427;DHT22;3755;59.316;18.092;2023-07-20T10:29:29;20.00;98.40
7427;DHT22;3755;59.316;18.092;2023-07-20T10:31:57;20.10;98.40
7427;DHT22;3755;59.316;18.092;2023-07-20T10:34:26;20.30;97.30
7427;DHT22;3755;59.316;18.092;2023-07-20T10:36:54;20.50;96.00
7427;DHT22;3755;59.316;18.092;2023-07-20T10:39:25;20.30;95.80
7427;DHT22;3755;59.316;18.092;2023-07-20T10:42:00;20.20;96.00
7427;DHT22;3755;59.316;18.092;2023-07-20T10:44:29;19.90;96.10
7427;DHT22;3755;59.316;18.092;2023-07-20T10:47:01;20.00;96.60
7427;DHT22;3755;59.316;18.092;2023-07-20T10:49:33;20.00;95.80
7427;DHT22;3755;59.316;18.092;2023-07-20T10:52:04;20.10;94.90
7427;DHT22;3755;59.316;18.092;2023-07-20T10:54:47;20.10;96.60
7427;DHT22;3755;59.316;18.092;2023-07-20T10:57:31;19.70;98.90
7427;DHT22;3755;59.316;18.092;2023-07-20T11:00:10;19.30;99.90
7427;DHT22;3755;59.316;18.092;2023-07-20T11:02:46;19.10;99.90
7427;DHT22;3755;59.316;18.092;2023-07-20T11:05:34;19.30;99.90
7427;DHT22;3755;59.316;18.092;2023-07-20T11:08:04;19.20;99.90
7427;DHT22;3755;59.316;18.092;2023-07-20T11:10:31;19.00;99.90
7427;DHT22;3755;59.316;18.092;2023-07-20T11:13:20;19.00;99.90
7427;DHT22;3755;59.316;18.092;2023-07-20T11:16:01;18.90;99.90
7427;DHT22;3755;59.316;18.092;2023-07-20T11:18:29;18.90;99.90
7427;DHT22;3755;59.316;18.092;2023-07-20T11:20:58;18.80;99.90
7427;DHT22;3755;59.316;18.092;2023-07-20T11:23:26;18.60;99.90
7427;DHT22;3755;59.316;18.092;2023-07-20T11:25:55;18.60;99.90
7427;DHT22;3755;59.316;18.092;2023-07-20T11:28:22;18.70;99.90
7427;DHT22;3755;59.316;18.092;2023-07-20T11:30:52;18.60;99.90
7427;DHT22;3755;59.316;18.092;2023-07-20T11:33:20;18.30;99.90
7427;DHT22;3755;59.316;18.092;2023-07-20T11:35:49;18.10;99.90
7427;DHT22;3755;59.316;18.092;2023-07-20T11:38:18;17.80;99.90
7427;DHT22;3755;59.316;18.092;2023-07-20T11:40:46;17.50;99.90
7427;DHT22;3755;59.316;18.092;2023-07-20T11:43:13;17.30;99.90
7427;DHT22;3755;59.316;18.092;2023-07-20T11:45:40;17.30;99.90
7427;DHT22;3755;59.316;18.092;2023-07-20T11:48:14;17.30;99.90
7427;DHT22;3755;59.316;18.092;2023-07-20T11:50:41;17.40;99.90
7427;DHT22;3755;59.316;18.092;2023-07-20T11:53:09;17.50;99.90
7427;DHT22;3755;59.316;18.092;2023-07-20T11:55:38;17.80;99.90
7427;DHT22;3755;59.316;18.092;2023-07-20T11:58:07;18.10;99.90
7427;DHT22;3755;59.316;18.092;2023-07-20T12:00:37;18.30;99.90
7427;DHT22;3755;59.316;18.092;2023-07-20T12:03:06;18.60;99.90
7427;DHT22;3755;59.316;18.092;2023-07-20T12:05:33;18.80;99.90
7427;DHT22;3755;59.316;18.092;2023-07-20T12:08:01;19.00;99.90
7427;DHT22;3755;59.316;18.092;2023-07-20T12:10:28;19.20;99.90
7427;DHT22;3755;59.316;18.092;2023-07-20T12:13:01;19.50;99.40
7427;DHT22;3755;59.316;18.092;2023-07-20T12:15:29;19.70;99.60
7427;DHT22;3755;59.316;18.092;2023-07-20T12:17:58;19.10;99.90
7427;DHT22;3755;59.316;18.092;2023-07-20T12:20:27;19.00;99.90
7427;DHT22;3755;59.316;18.092;2023-07-20T12:23:00;18.90;99.90
7427;DHT22;3755;59.316;18.092;2023-07-20T12:25:37;19.00;99.90
7427;DHT22;3755;59.316;18.092;2023-07-20T12:28:07;19.00;99.90
7427;DHT22;3755;59.316;18.092;2023-07-20T12:30:35;19.40;99.90
7427;DHT22;3755;59.316;18.092;2023-07-20T12:33:03;19.40;99.90
7427;DHT22;3755;59.316;18.092;2023-07-20T12:35:30;19.40;99.90
7427;DHT22;3755;59.316;18.092;2023-07-20T12:37:59;19.50;99.90
7427;DHT22;3755;59.316;18.092;2023-07-20T12:40:27;19.90;99.90
7427;DHT22;3755;59.316;18.092;2023-07-20T12:42:54;20.10;99.90
7427;DHT22;3755;59.316;18.092;2023-07-20T12:45:32;20.30;99.90
7427;DHT22;3755;59.316;18.092;2023-07-20T12:47:59;20.10;99.90
7427;DHT22;3755;59.316;18.092;2023-07-20T12:50:27;19.80;99.90
7427;DHT22;3755;59.316;18.092;2023-07-20T12:52:54;19.80;99.90
7427;DHT22;3755;59.316;18.092;2023-07-20T12:55:22;19.80;99.90
7427;DHT22;3755;59.316;18.092;2023-07-20T12:57:49;20.10;99.90
7427;DHT22;3755;59.316;18.092;2023-07-20T13:00:17;20.00;99.90
7427;DHT22;3755;59.316;18.092;2023-07-20T13:02:46;20.10;99.90
7427;DHT22;3755;59.316;18.092;2023-07-20T13:05:13;20.30;99.90
7427;DHT22;3755;59.316;18.092;2023-07-20T13:07:41;20.30;99.90
7427;DHT22;3755;59.316;18.092;2023-07-20T13:10:09;20.30;99.90
7427;DHT22;3755;59.316;18.092;2023-07-20T13:12:37;20.10;99.90
7427;DHT22;3755;59.316;18.092;2023-07-20T13:15:06;20.30;99.90
7427;DHT22;3755;59.316;18.092;2023-07-20T13:17:33;20.40;99.90
7427;DHT22;3755;59.316;18.092;2023-07-20T13:20:03;20.20;99.90
7427;DHT22;3755;59.316;18.092;2023-07-20T13:22:31;20.10;99.90
7427;DHT22;3755;59.316;18.092;2023-07-20T13:24:58;20.30;99.90
7427;DHT22;3755;59.316;18.092;2023-07-20T13:27:25;20.00;99.80
7427;DHT22;3755;59.316;18.092;2023-07-20T13:29:53;19.90;99.90
7427;DHT22;3755;59.316;18.092;2023-07-20T13:32:20;20.20;99.90
7427;DHT22;3755;59.316;18.092;2023-07-20T13:34:47;20.70;99.60
7427;DHT22;3755;59.316;18.092;2023-07-20T13:37:16;20.60;99.20
7427;DHT22;3755;59.316;18.092;2023-07-20T13:39:43;20.50;99.30
7427;DHT22;3755;59.316;18.092;2023-07-20T13:42:10;20.40;99.20
7427;DHT22;3755;59.316;18.092;2023-07-20T13:44:38;20.40;99.40
7427;DHT22;3755;59.316;18.092;2023-07-20T13:47:06;20.40;99.10
7427;DHT22;3755;59.316;18.092;2023-07-20T13:49:33;20.50;98.30
7427;DHT22;3755;59.316;18.092;2023-07-20T13:52:00;20.20;98.70
7427;DHT22;3755;59.316;18.092;2023-07-20T13:54:29;20.30;99.10
7427;DHT22;3755;59.316;18.092;2023-07-20T13:56:56;20.40;98.60
7427;DHT22;3755;59.316;18.092;2023-07-20T13:59:24;20.10;98.10
7427;DHT22;3755;59.316;18.092;2023-07-20T14:01:51;20.40;97.80
7427;DHT22;3755;59.316;18.092;2023-07-20T14:04:18;20.40;97.10
7427;DHT22;3755;59.316;18.092;2023-07-20T14:06:45;20.20;97.50
7427;DHT22;3755;59.316;18.092;2023-07-20T14:09:13;20.20;97.80
7427;DHT22;3755;59.316;18.092;2023-07-20T14:11:41;20.30;97.70
7427;DHT22;3755;59.316;18.092;2023-07-20T14:14:09;20.40;97.20
7427;DHT22;3755;59.316;18.092;2023-07-20T14:16:36;20.40;96.90
7427;DHT22;3755;59.316;18.092;2023-07-20T14:19:03;20.40;96.60
7427;DHT22;3755;59.316;18.092;2023-07-20T14:21:31;20.30;96.70
7427;DHT22;3755;59.316;18.092;2023-07-20T14:23:58;20.30;96.90
7427;DHT22;3755;59.316;18.092;2023-07-20T14:26:26;20.40;97.50
7427;DHT22;3755;59.316;18.092;2023-07-20T14:28:54;20.80;97.40
7427;DHT22;3755;59.316;18.092;2023-07-20T14:31:21;20.90;97.40
7427;DHT22;3755;59.316;18.092;2023-07-20T14:33:49;20.80;97.00
7427;DHT22;3755;59.316;18.092;2023-07-20T14:36:16;20.20;98.20
7427;DHT22;3755;59.316;18.092;2023-07-20T14:38:43;20.10;98.30
7427;DHT22;3755;59.316;18.092;2023-07-20T14:41:10;20.00;98.20
7427;DHT22;3755;59.316;18.092;2023-07-20T14:43:38;19.80;99.70
7427;DHT22;3755;59.316;18.092;2023-07-20T14:46:06;19.80;99.90
7427;DHT22;3755;59.316;18.092;2023-07-20T14:48:33;19.90;99.90
7427;DHT22;3755;59.316;18.092;2023-07-20T14:51:01;20.10;99.90
7427;DHT22;3755;59.316;18.092;2023-07-20T14:53:28;19.90;99.90
7427;DHT22;3755;59.316;18.092;2023-07-20T14:55:59;20.10;99.90
7427;DHT22;3755;59.316;18.092;2023-07-20T14:58:26;20.30;99.90
7427;DHT22;3755;59.316;18.092;2023-07-20T15:00:54;20.40;99.60
7427;DHT22;3755;59.316;18.092;2023-07-20T15:03:22;20.60;99.40
7427;DHT22;3755;59.316;18.092;2023-07-20T15:05:49;20.20;99.80
7427;DHT22;3755;59.316;18.092;2023-07-20T15:08:17;20.00;99.90
7427;DHT22;3755;59.316;18.092;2023-07-20T15:10:44;19.80;99.90
7427;DHT22;3755;59.316;18.092;2023-07-20T15:13:11;19.70;99.90
7427;DHT22;3755;59.316;18.092;2023-07-20T15:15:39;19.60;99.90
7427;DHT22;3755;59.316;18.092;2023-07-20T15:18:06;19.40;99.90
7427;DHT22;3755;59.316;18.092;2023-07-20T15:20:34;18.70;99.90
7427;DHT22;3755;59.316;18.092;2023-07-20T15:23:01;17.70;99.90
7427;DHT22;3755;59.316;18.092;2023-07-20T15:25:29;17.10;99.90
7427;DHT22;3755;59.316;18.092;2023-07-20T15:27:56;16.60;99.90
7427;DHT22;3755;59.316;18.092;2023-07-20T15:30:23;16.40;99.90
7427;DHT22;3755;59.316;18.092;2023-07-20T15:32:50;16.40;99.90
7427;DHT22;3755;59.316;18.092;2023-07-20T15:35:17;16.40;99.90
7427;DHT22;3755;59.316;18.092;2023-07-20T15:37:46;16.40;99.90
7427;DHT22;3755;59.316;18.092;2023-07-20T15:40:13;16.40;99.90
7427;DHT22;3755;59.316;18.092;2023-07-20T15:42:40;16.50;99.90
7427;DHT22;3755;59.316;18.092;2023-07-20T15:45:09;16.70;99.90
7427;DHT22;3755;59.316;18.092;2023-07-20T15:47:36;16.80;99.90
7427;DHT22;3755;59.316;18.092;2023-07-20T15:50:04;17.00;99.90
7427;DHT22;3755;59.316;18.092;2023-07-20T15:52:32;17.10;99.90
7427;DHT22;3755;59.316;18.092;2023-07-20T15:55:00;17.40;99.90
7427;DHT22;3755;59.316;18.092;2023-07-20T15:57:30;17.60;99.90